createdAt,value
2018-07-27T00:01:58.493Z,3.30
2018-07-27T00:04:26.197Z,3.40
2018-07-27T00:06:53.895Z,3.30
2018-07-27T00:09:21.577Z,3.20
2018-07-27T00:11:49.559Z,2.75
2018-07-27T00:14:17.254Z,3.22
2018-07-27T00:16:44.941Z,3.22
2018-07-27T00:19:12.677Z,3.60
2018-07-27T00:21:40.374Z,2.95
2018-07-27T00:24:08.044Z,3.20
2018-07-27T00:26:35.804Z,3.12
2018-07-27T00:29:03.513Z,2.83
2018-07-27T00:31:31.243Z,2.75
2018-07-27T00:33:58.955Z,3.10
2018-07-27T00:36:26.692Z,3.22
2018-07-27T00:38:54.461Z,3.40
2018-07-27T00:41:22.137Z,3.50
2018-07-27T00:43:49.854Z,3.33
2018-07-27T00:46:17.673Z,2.90
2018-07-27T00:48:45.562Z,3.50
2018-07-27T00:51:13.334Z,3.30
2018-07-27T00:53:41.033Z,3.02
2018-07-27T00:56:08.742Z,3.42
2018-07-27T00:58:36.442Z,2.95
2018-07-27T01:01:04.147Z,3.27
2018-07-27T01:03:31.834Z,3.05
2018-07-27T01:05:59.526Z,3.10
2018-07-27T01:08:27.220Z,3.25
2018-07-27T01:10:54.899Z,3.12
2018-07-27T01:13:22.713Z,3.35
2018-07-27T01:15:50.414Z,3.40
2018-07-27T01:18:18.116Z,3.22
2018-07-27T01:20:45.849Z,3.27
2018-07-27T01:23:13.636Z,3.02
2018-07-27T01:25:41.324Z,3.17
2018-07-27T01:28:09.017Z,3.02
2018-07-27T01:30:36.755Z,3.45
2018-07-27T01:33:04.512Z,3.10
2018-07-27T01:35:32.566Z,3.35
2018-07-27T01:38:00.338Z,3.40
2018-07-27T01:40:28.134Z,3.20
2018-07-27T01:42:55.858Z,3.27
2018-07-27T01:45:23.780Z,3.20
2018-07-27T01:47:51.542Z,3.52
2018-07-27T01:50:19.470Z,3.60
2018-07-27T01:52:47.141Z,3.20
2018-07-27T01:55:14.853Z,3.50
2018-07-27T01:57:42.565Z,3.37
2018-07-27T02:00:10.283Z,3.58
2018-07-27T02:02:38.015Z,2.97
2018-07-27T02:05:06.274Z,3.50
2018-07-27T02:07:33.999Z,3.12
2018-07-27T02:10:01.760Z,3.62
2018-07-27T02:12:29.468Z,3.50
2018-07-27T02:14:57.150Z,3.83
2018-07-27T02:17:24.895Z,3.72
2018-07-27T02:19:52.688Z,3.70
2018-07-27T02:22:20.342Z,3.40
2018-07-27T02:24:48.043Z,3.67
2018-07-27T02:27:15.727Z,3.73
2018-07-27T02:29:43.454Z,3.33
2018-07-27T02:32:11.139Z,3.43
2018-07-27T02:34:38.819Z,3.53
2018-07-27T02:37:06.537Z,3.50
2018-07-27T02:39:34.218Z,3.57
2018-07-27T02:42:02.016Z,3.12
2018-07-27T02:44:29.647Z,3.67
2018-07-27T02:46:57.392Z,4.00
2018-07-27T02:49:25.132Z,3.53
2018-07-27T02:51:52.862Z,3.77
2018-07-27T02:54:20.543Z,3.77
2018-07-27T02:56:48.229Z,3.83
2018-07-27T02:59:15.929Z,3.87
2018-07-27T03:01:43.643Z,3.77
2018-07-27T03:04:11.291Z,3.77
2018-07-27T03:06:39.323Z,3.83
2018-07-27T03:09:08.998Z,3.43
2018-07-27T03:11:36.669Z,3.57
2018-07-27T03:14:04.486Z,3.50
2018-07-27T03:16:32.149Z,3.70
2018-07-27T03:18:59.939Z,3.60
2018-07-27T03:21:27.785Z,3.60
2018-07-27T03:23:55.691Z,3.60
2018-07-27T03:26:23.386Z,3.60
2018-07-27T03:28:51.862Z,3.43
2018-07-27T03:31:19.564Z,3.43
2018-07-27T03:33:47.282Z,3.57
2018-07-27T03:36:14.975Z,3.73
2018-07-27T03:38:42.666Z,3.90
2018-07-27T03:41:11.589Z,3.70
2018-07-27T03:43:39.355Z,3.67
2018-07-27T03:46:07.270Z,3.70
2018-07-27T03:48:34.983Z,3.70
2018-07-27T03:51:02.733Z,3.93
2018-07-27T03:53:30.453Z,3.73
2018-07-27T03:55:58.185Z,3.57
2018-07-27T03:58:25.985Z,3.83
2018-07-27T04:00:53.700Z,4.17
2018-07-27T04:03:21.493Z,3.60
2018-07-27T04:05:49.386Z,4.10
2018-07-27T04:08:17.106Z,3.50
2018-07-27T04:10:44.814Z,3.77
2018-07-27T04:13:12.579Z,3.73
2018-07-27T04:15:40.284Z,3.83
2018-07-27T04:18:08.029Z,4.00
2018-07-27T04:20:35.739Z,4.00
2018-07-27T04:23:03.477Z,3.80
2018-07-27T04:25:31.170Z,3.67
2018-07-27T04:27:58.915Z,3.80
2018-07-27T04:30:26.636Z,3.70
2018-07-27T04:32:54.353Z,4.10
2018-07-27T04:35:22.075Z,4.00
2018-07-27T04:37:49.848Z,3.70
2018-07-27T04:40:17.585Z,3.70
2018-07-27T04:42:45.322Z,4.17
2018-07-27T04:45:13.030Z,3.97
2018-07-27T04:47:40.722Z,4.00
2018-07-27T04:50:08.494Z,3.77
2018-07-27T04:52:36.289Z,3.80
2018-07-27T04:55:04.105Z,3.60
2018-07-27T04:57:31.944Z,4.00
2018-07-27T04:59:59.708Z,4.10
2018-07-27T05:02:27.438Z,4.00
2018-07-27T05:04:55.120Z,4.07
2018-07-27T05:07:22.903Z,4.83
2018-07-27T05:09:50.597Z,4.17
2018-07-27T05:12:18.321Z,3.70
2018-07-27T05:14:46.004Z,3.80
2018-07-27T05:17:13.741Z,4.10
2018-07-27T05:19:41.442Z,3.77
2018-07-27T05:22:09.145Z,4.00
2018-07-27T05:24:36.879Z,4.37
2018-07-27T05:27:04.646Z,4.47
2018-07-27T05:29:32.312Z,4.47
2018-07-27T05:32:00.002Z,4.60
2018-07-27T05:34:27.743Z,4.30
2018-07-27T05:36:55.432Z,4.47
2018-07-27T05:39:23.174Z,4.00
2018-07-27T05:41:50.869Z,4.17
2018-07-27T05:44:18.612Z,4.50
2018-07-27T05:46:46.388Z,4.23
2018-07-27T05:49:14.111Z,4.20
2018-07-27T05:51:42.124Z,4.27
2018-07-27T05:54:09.801Z,4.13
2018-07-27T05:56:37.522Z,4.63
2018-07-27T05:59:05.353Z,4.80
2018-07-27T06:01:33.026Z,5.07
2018-07-27T06:04:00.933Z,4.80
2018-07-27T06:06:28.668Z,4.73
2018-07-27T06:08:56.349Z,4.70
2018-07-27T06:11:24.061Z,4.30
2018-07-27T06:13:52.613Z,4.50
2018-07-27T06:16:20.292Z,5.23
2018-07-27T06:18:47.975Z,4.63
2018-07-27T06:21:15.717Z,5.00
2018-07-27T06:23:43.469Z,4.67
2018-07-27T06:26:11.210Z,4.90
2018-07-27T06:28:38.854Z,4.30
2018-07-27T06:31:06.654Z,4.73
2018-07-27T06:33:34.392Z,4.73
2018-07-27T06:36:02.081Z,4.43
2018-07-27T06:38:29.815Z,4.43
2018-07-27T06:40:57.710Z,5.13
2018-07-27T06:43:25.415Z,5.17
2018-07-27T06:45:53.112Z,4.70
2018-07-27T06:48:20.794Z,4.70
2018-07-27T06:50:50.070Z,4.37
2018-07-27T06:53:18.018Z,5.28
2018-07-27T06:55:45.989Z,4.55
2018-07-27T06:58:13.817Z,4.67
2018-07-27T07:00:41.532Z,4.28
2018-07-27T07:03:09.320Z,5.37
2018-07-27T07:05:37.065Z,4.90
2018-07-27T07:08:04.835Z,4.30
2018-07-27T07:10:32.907Z,4.72
2018-07-27T07:13:00.736Z,4.75
2018-07-27T07:15:28.466Z,4.37
2018-07-27T07:17:56.156Z,4.70
2018-07-27T07:20:23.983Z,4.90
2018-07-27T07:22:52.104Z,5.05
2018-07-27T07:25:19.936Z,5.00
2018-07-27T07:27:47.577Z,4.97
2018-07-27T07:30:15.318Z,4.92
2018-07-27T07:32:43.078Z,4.80
2018-07-27T07:35:10.891Z,4.83
2018-07-27T07:37:38.650Z,4.95
2018-07-27T07:40:06.935Z,4.95
2018-07-27T07:42:34.679Z,5.00
2018-07-27T07:45:02.579Z,4.53
2018-07-27T07:47:30.218Z,4.85
2018-07-27T07:49:57.921Z,4.67
2018-07-27T07:52:25.729Z,4.78
2018-07-27T07:54:53.465Z,4.45
2018-07-27T07:57:21.235Z,4.92
2018-07-27T07:59:48.927Z,4.55
2018-07-27T08:02:16.635Z,5.10
2018-07-27T08:04:44.318Z,4.60
2018-07-27T08:07:12.025Z,5.17
2018-07-27T08:09:39.738Z,4.80
2018-07-27T08:12:07.530Z,4.70
2018-07-27T08:14:35.245Z,4.80
2018-07-27T08:17:03.213Z,4.55
2018-07-27T08:19:30.948Z,4.75
2018-07-27T08:21:58.667Z,4.20
2018-07-27T08:24:26.367Z,4.83
2018-07-27T08:26:59.429Z,4.67
2018-07-27T08:29:28.367Z,4.78
2018-07-27T08:31:56.475Z,4.22
2018-07-27T08:34:24.248Z,4.47
2018-07-27T08:36:52.222Z,4.47
2018-07-27T08:39:21.318Z,4.90
2018-07-27T08:41:49.265Z,4.50
2018-07-27T08:44:20.431Z,3.98
2018-07-27T08:46:48.168Z,4.95
2018-07-27T08:49:15.907Z,4.37
2018-07-27T08:51:43.626Z,4.53
2018-07-27T08:54:11.349Z,4.90
2018-07-27T08:56:39.038Z,4.42
2018-07-27T08:59:07.031Z,4.47
2018-07-27T09:01:34.742Z,4.20
2018-07-27T09:04:02.558Z,4.22
2018-07-27T09:06:30.167Z,4.30
2018-07-27T09:08:57.910Z,4.17
2018-07-27T09:11:25.702Z,4.30
2018-07-27T09:13:53.962Z,4.80
2018-07-27T09:16:22.024Z,5.10
2018-07-27T09:18:50.188Z,4.83
2018-07-27T09:21:17.993Z,4.62
2018-07-27T09:23:45.713Z,4.25
2018-07-27T09:26:13.559Z,4.50
2018-07-27T09:28:41.283Z,4.37
2018-07-27T09:31:09.048Z,4.33
2018-07-27T09:33:36.803Z,4.83
2018-07-27T09:36:04.710Z,4.97
2018-07-27T09:38:32.451Z,4.62
2018-07-27T09:41:00.183Z,4.60
2018-07-27T09:43:27.935Z,4.45
2018-07-27T09:45:55.647Z,4.45
2018-07-27T09:48:23.347Z,4.67
2018-07-27T09:50:51.197Z,4.47
2018-07-27T09:53:18.947Z,4.35
2018-07-27T09:55:46.680Z,4.55
2018-07-27T09:58:14.416Z,4.60
2018-07-27T10:00:47.834Z,5.15
2018-07-27T10:03:15.697Z,5.00
2018-07-27T10:05:43.460Z,4.83
2018-07-27T10:08:11.183Z,4.85
2018-07-27T10:10:38.938Z,5.60
2018-07-27T10:13:06.866Z,5.05
2018-07-27T10:15:34.663Z,4.92
2018-07-27T10:18:02.734Z,5.03
2018-07-27T10:20:30.536Z,5.03
2018-07-27T10:22:58.441Z,4.97
2018-07-27T10:25:26.193Z,4.65
2018-07-27T10:27:53.875Z,5.05
2018-07-27T10:30:21.631Z,4.97
2018-07-27T10:32:49.355Z,5.10
2018-07-27T10:35:17.133Z,4.75
2018-07-27T10:37:44.883Z,4.62
2018-07-27T10:40:12.633Z,4.28
2018-07-27T10:42:40.375Z,4.40
2018-07-27T10:45:08.133Z,4.62
2018-07-27T10:47:36.299Z,4.35
2018-07-27T10:50:04.707Z,4.55
2018-07-27T10:52:32.497Z,4.60
2018-07-27T10:55:00.187Z,4.37
2018-07-27T10:57:27.915Z,4.37
2018-07-27T10:59:55.888Z,4.22
2018-07-27T11:02:23.645Z,4.15
2018-07-27T11:04:51.348Z,4.53
2018-07-27T11:07:19.185Z,4.50
2018-07-27T11:09:46.992Z,4.60
2018-07-27T11:12:14.646Z,4.90
2018-07-27T11:14:42.377Z,4.85
2018-07-27T11:17:10.423Z,4.28
2018-07-27T11:19:38.127Z,4.70
2018-07-27T11:22:05.959Z,4.60
2018-07-27T11:24:33.696Z,4.97
2018-07-27T11:27:01.425Z,4.50
2018-07-27T11:29:29.257Z,4.78
2018-07-27T11:31:57.317Z,4.65
2018-07-27T11:34:25.060Z,4.40
2018-07-27T11:36:53.091Z,4.03
2018-07-27T11:39:20.781Z,4.78
2018-07-27T11:41:48.642Z,5.05
2018-07-27T11:44:16.353Z,3.70
2018-07-27T11:46:44.102Z,3.75
2018-07-27T11:49:11.831Z,3.72
2018-07-27T11:51:39.561Z,3.87
2018-07-27T11:54:07.356Z,4.00
2018-07-27T11:56:35.077Z,4.35
2018-07-27T11:59:02.822Z,3.85
2018-07-27T12:01:30.529Z,3.58
2018-07-27T12:03:58.229Z,3.85
2018-07-27T12:06:25.978Z,4.30
2018-07-27T12:08:53.717Z,4.10
2018-07-27T12:11:21.441Z,4.33
2018-07-27T12:13:49.224Z,4.25
2018-07-27T12:16:16.827Z,4.17
2018-07-27T12:18:44.522Z,4.10
2018-07-27T12:21:12.290Z,3.77
2018-07-27T12:23:41.014Z,3.87
2018-07-27T12:26:08.817Z,3.70
2018-07-27T12:28:36.594Z,3.87
2018-07-27T12:31:04.328Z,3.72
2018-07-27T12:33:32.026Z,3.70
2018-07-27T12:35:59.778Z,3.30
2018-07-27T12:38:27.591Z,3.45
2018-07-27T12:40:55.281Z,3.50
2018-07-27T12:43:22.981Z,2.72
2018-07-27T12:45:50.704Z,2.87
2018-07-27T12:48:18.433Z,2.95
2018-07-27T12:50:46.179Z,3.37
2018-07-27T12:53:13.926Z,3.30
2018-07-27T12:55:41.665Z,3.22
2018-07-27T12:58:09.425Z,3.60
2018-07-27T13:00:37.194Z,3.62
2018-07-27T13:03:05.286Z,3.10
2018-07-27T13:05:33.085Z,3.02
2018-07-27T13:08:00.745Z,2.75
2018-07-27T13:10:28.526Z,3.10
2018-07-27T13:12:56.246Z,2.70
2018-07-27T13:15:24.066Z,2.90
2018-07-27T13:17:51.836Z,2.72
2018-07-27T13:20:19.545Z,2.62
2018-07-27T13:22:47.283Z,2.70
2018-07-27T13:25:15.089Z,3.15
2018-07-27T13:27:42.820Z,2.77
2018-07-27T13:30:10.522Z,3.10
2018-07-27T13:32:38.239Z,3.08
2018-07-27T13:35:06.149Z,2.90
2018-07-27T13:37:34.871Z,2.40
2018-07-27T13:40:03.685Z,2.80
2018-07-27T13:42:32.791Z,2.87
2018-07-27T13:45:00.492Z,2.65
2018-07-27T13:47:28.237Z,2.72
2018-07-27T13:49:55.973Z,2.52
2018-07-27T13:52:23.685Z,2.87
2018-07-27T13:54:51.393Z,2.62
2018-07-27T13:57:19.158Z,2.65
2018-07-27T13:59:46.918Z,2.47
2018-07-27T14:02:14.706Z,2.52
2018-07-27T14:04:42.444Z,2.50
2018-07-27T14:07:11.049Z,2.50
2018-07-27T14:09:38.794Z,2.30
2018-07-27T14:12:06.539Z,2.75
2018-07-27T14:14:34.278Z,2.50
2018-07-27T14:17:02.187Z,2.77
2018-07-27T14:19:30.088Z,2.70
2018-07-27T14:21:57.797Z,2.35
2018-07-27T14:24:25.559Z,2.72
2018-07-27T14:26:53.310Z,2.47
2018-07-27T14:29:21.139Z,2.80
2018-07-27T14:31:48.835Z,2.58
2018-07-27T14:34:16.569Z,2.60
2018-07-27T14:36:44.319Z,2.17
2018-07-27T14:39:13.319Z,2.22
2018-07-27T14:41:41.562Z,2.47
2018-07-27T14:44:09.342Z,2.25
2018-07-27T14:46:37.435Z,2.30
2018-07-27T14:49:09.483Z,2.40
2018-07-27T14:51:37.402Z,2.60
2018-07-27T14:54:06.283Z,2.40
2018-07-27T14:56:33.990Z,2.27
2018-07-27T14:59:01.728Z,2.20
2018-07-27T15:01:29.413Z,2.47
2018-07-27T15:03:57.338Z,2.60
2018-07-27T15:06:25.074Z,2.70
2018-07-27T15:08:52.749Z,2.80
2018-07-27T15:11:20.482Z,2.47
2018-07-27T15:13:48.165Z,2.45
2018-07-27T15:16:15.940Z,2.40
2018-07-27T15:18:43.599Z,2.75
2018-07-27T15:21:11.322Z,2.45
2018-07-27T15:23:39.073Z,2.50
2018-07-27T15:26:06.822Z,2.42
2018-07-27T15:28:34.780Z,2.52
2018-07-27T15:31:02.552Z,2.33
2018-07-27T15:33:30.427Z,2.02
2018-07-27T15:35:58.136Z,2.30
2018-07-27T15:38:25.865Z,2.22
2018-07-27T15:40:53.560Z,2.27
2018-07-27T15:43:21.266Z,2.10
2018-07-27T15:45:48.980Z,2.20
2018-07-27T15:48:16.730Z,2.70
2018-07-27T15:50:44.599Z,2.40
2018-07-27T15:53:12.429Z,2.50
2018-07-27T15:55:40.248Z,2.35
2018-07-27T15:58:07.905Z,2.30
2018-07-27T16:00:35.645Z,2.87
2018-07-27T16:03:03.454Z,2.60
2018-07-27T16:05:31.197Z,2.75
2018-07-27T16:07:59.294Z,2.70
2018-07-27T16:10:27.834Z,2.37
2018-07-27T16:12:55.666Z,2.80
2018-07-27T16:15:24.191Z,2.20
2018-07-27T16:17:51.924Z,2.67
2018-07-27T16:20:19.638Z,2.50
2018-07-27T16:22:47.434Z,2.60
2018-07-27T16:25:15.296Z,2.35
2018-07-27T16:27:43.090Z,2.72
2018-07-27T16:30:10.899Z,2.58
2018-07-27T16:32:38.640Z,2.70
2018-07-27T16:35:06.350Z,2.85
2018-07-27T16:37:34.063Z,2.70
2018-07-27T16:40:01.916Z,2.60
2018-07-27T16:42:29.543Z,2.30
2018-07-27T16:44:57.328Z,2.52
2018-07-27T16:47:25.179Z,3.00
2018-07-27T16:49:52.853Z,2.70
2018-07-27T16:52:20.562Z,2.40
2018-07-27T16:54:48.305Z,2.70
2018-07-27T16:57:16.052Z,2.60
2018-07-27T16:59:43.898Z,2.60
2018-07-27T17:02:11.671Z,2.52
2018-07-27T17:04:39.397Z,2.47
2018-07-27T17:07:07.191Z,2.50
2018-07-27T17:09:35.705Z,2.50
2018-07-27T17:12:03.791Z,2.70
2018-07-27T17:14:31.427Z,3.02
2018-07-27T17:16:59.267Z,3.10
2018-07-27T17:19:26.877Z,2.70
2018-07-27T17:21:54.558Z,3.00
2018-07-27T17:24:22.298Z,2.85
2018-07-27T17:26:50.049Z,2.58
2018-07-27T17:29:17.718Z,2.98
2018-07-27T17:31:46.134Z,2.70
2018-07-27T17:34:13.952Z,2.77
2018-07-27T17:36:41.631Z,2.87
2018-07-27T17:39:10.216Z,2.80
2018-07-27T17:41:38.185Z,2.80
2018-07-27T17:44:06.366Z,2.75
2018-07-27T17:46:34.102Z,3.27
2018-07-27T17:49:01.854Z,3.20
2018-07-27T17:51:29.579Z,2.80
2018-07-27T17:53:57.223Z,2.90
2018-07-27T17:56:24.935Z,3.42
2018-07-27T17:58:52.969Z,3.02
2018-07-27T18:01:21.082Z,3.25
2018-07-27T18:03:48.804Z,3.17
2018-07-27T18:06:16.469Z,3.08
2018-07-27T18:08:44.178Z,3.20
2018-07-27T18:11:11.924Z,3.52
2018-07-27T18:13:39.635Z,2.95
2018-07-27T18:16:07.442Z,3.65
2018-07-27T18:18:35.300Z,3.08
2018-07-27T18:21:03.183Z,3.50
2018-07-27T18:23:31.015Z,3.65
2018-07-27T18:25:58.765Z,3.65
2018-07-27T18:28:26.502Z,3.33
2018-07-27T18:30:54.553Z,3.65
2018-07-27T18:33:22.576Z,3.35
2018-07-27T18:35:52.487Z,3.50
2018-07-27T18:38:22.986Z,3.40
2018-07-27T18:40:50.995Z,3.50
2018-07-27T18:43:18.753Z,3.45
2018-07-27T18:45:46.571Z,4.42
2018-07-27T18:48:14.317Z,15.75
2018-07-27T18:50:42.713Z,4.17
2018-07-27T18:53:10.474Z,4.20
2018-07-27T18:55:38.337Z,3.52
2018-07-27T18:58:06.147Z,7.28
2018-07-27T19:00:34.211Z,4.30
2018-07-27T19:03:01.943Z,4.42
2018-07-27T19:05:29.837Z,4.33
2018-07-27T19:07:57.648Z,3.85
2018-07-27T19:10:25.394Z,3.70
2018-07-27T19:12:53.821Z,4.45
2018-07-27T19:15:21.960Z,3.83
2018-07-27T19:17:49.748Z,3.90
2018-07-27T19:20:17.539Z,4.42
2018-07-27T19:22:45.379Z,4.25
2018-07-27T19:25:13.198Z,3.85
2018-07-27T19:27:40.962Z,3.90
2018-07-27T19:30:10.365Z,3.25
2018-07-27T19:32:38.060Z,4.55
2018-07-27T19:35:05.863Z,3.92
2018-07-27T19:37:34.427Z,4.78
2018-07-27T19:40:02.254Z,4.25
2018-07-27T19:42:29.977Z,4.45
2018-07-27T19:44:57.746Z,3.52
2018-07-27T19:47:25.499Z,3.90
2018-07-27T19:49:53.273Z,4.67
2018-07-27T19:52:21.007Z,4.17
2018-07-27T19:54:48.718Z,4.20
2018-07-27T19:57:16.497Z,4.12
2018-07-27T19:59:44.798Z,3.65
2018-07-27T20:02:12.633Z,3.70
2018-07-27T20:04:41.479Z,3.58
2018-07-27T20:07:09.525Z,3.55
2018-07-27T20:09:37.267Z,3.45
2018-07-27T20:12:05.124Z,3.90
2018-07-27T20:14:32.859Z,3.35
2018-07-27T20:17:00.581Z,3.70
2018-07-27T20:19:28.318Z,3.58
2018-07-27T20:21:56.062Z,3.72
2018-07-27T20:24:23.789Z,4.45
2018-07-27T20:26:51.505Z,4.17
2018-07-27T20:29:19.333Z,3.80
2018-07-27T20:31:47.087Z,3.72
2018-07-27T20:34:14.874Z,4.20
2018-07-27T20:36:42.626Z,3.83
2018-07-27T20:39:12.298Z,4.55
2018-07-27T20:41:40.388Z,4.53
2018-07-27T20:44:08.197Z,3.83
2018-07-27T20:46:35.935Z,3.98
2018-07-27T20:49:03.829Z,4.28
2018-07-27T20:51:31.607Z,3.83
2018-07-27T20:53:59.322Z,3.95
2018-07-27T20:56:27.083Z,4.00
2018-07-27T20:58:55.145Z,4.75
2018-07-27T21:01:22.924Z,4.92
2018-07-27T21:03:50.705Z,5.47
2018-07-27T21:06:18.631Z,4.90
2018-07-27T21:08:46.377Z,5.42
2018-07-27T21:11:14.173Z,6.58
2018-07-27T21:13:41.900Z,5.10
2018-07-27T21:16:10.327Z,5.53
2018-07-27T21:18:38.152Z,5.05
2018-07-27T21:21:05.940Z,4.67
2018-07-27T21:23:33.710Z,5.60
2018-07-27T21:26:01.488Z,5.10
2018-07-27T21:28:29.213Z,7.42
2018-07-27T21:30:56.957Z,4.97
2018-07-27T21:33:24.670Z,4.78
2018-07-27T21:35:52.817Z,4.75
2018-07-27T21:38:20.506Z,4.75
2018-07-27T21:40:48.172Z,4.17
2018-07-27T21:43:15.849Z,5.00
2018-07-27T21:45:43.656Z,3.95
2018-07-27T21:48:11.333Z,4.75
2018-07-27T21:50:39.035Z,4.85
2018-07-27T21:53:06.787Z,4.40
2018-07-27T21:55:34.611Z,3.83
2018-07-27T21:58:02.310Z,4.20
2018-07-27T22:00:33.677Z,3.72
2018-07-27T22:03:02.857Z,4.03
2018-07-27T22:05:30.866Z,4.45
2018-07-27T22:07:58.640Z,4.40
2018-07-27T22:10:26.468Z,3.95
2018-07-27T22:12:55.206Z,4.30
2018-07-27T22:15:24.195Z,4.40
2018-07-27T22:17:51.988Z,4.03
2018-07-27T22:20:20.690Z,4.62
2018-07-27T22:22:48.459Z,4.00
2018-07-27T22:25:16.244Z,4.35
2018-07-27T22:27:44.988Z,3.80
2018-07-27T22:30:12.851Z,4.00
2018-07-27T22:32:40.527Z,4.53
2018-07-27T22:35:08.357Z,4.45
2018-07-27T22:37:37.222Z,4.30
2018-07-27T22:40:05.497Z,4.70
2018-07-27T22:42:33.321Z,4.92
2018-07-27T22:45:01.089Z,4.40
2018-07-27T22:47:29.068Z,4.95
2018-07-27T22:49:56.853Z,4.53
2018-07-27T22:52:24.593Z,4.60
2018-07-27T22:54:52.734Z,4.80
2018-07-27T22:57:20.595Z,4.57
2018-07-27T22:59:48.331Z,4.53
2018-07-27T23:02:16.171Z,4.57
2018-07-27T23:04:43.872Z,5.55
2018-07-27T23:07:11.569Z,4.70
2018-07-27T23:09:39.279Z,4.67
2018-07-27T23:12:07.145Z,4.40
2018-07-27T23:14:34.900Z,4.30
2018-07-27T23:17:02.741Z,4.67
2018-07-27T23:19:30.702Z,4.97
2018-07-27T23:21:58.401Z,4.45
2018-07-27T23:24:26.123Z,5.37
2018-07-27T23:26:53.809Z,4.43
2018-07-27T23:29:21.582Z,4.30
2018-07-27T23:31:49.318Z,4.70
2018-07-27T23:34:16.975Z,5.00
2018-07-27T23:36:44.693Z,4.33
2018-07-27T23:39:13.381Z,5.00
2018-07-27T23:41:41.930Z,4.87
2018-07-27T23:44:09.754Z,5.13
2018-07-27T23:46:37.545Z,5.17
2018-07-27T23:49:05.233Z,5.30
2018-07-27T23:51:32.947Z,5.60
2018-07-27T23:54:00.773Z,5.80
2018-07-27T23:56:28.515Z,5.60
2018-07-27T23:58:56.201Z,6.03
